createdAt,value
2023-05-17T00:04:33.425Z,3.53
2023-05-17T00:09:32.184Z,2.38
2023-05-17T00:14:31.342Z,3.33
2023-05-17T00:19:31.482Z,3.22
2023-05-17T00:24:30.248Z,3.40
2023-05-17T00:29:28.996Z,3.13
2023-05-17T00:34:27.805Z,3.78
2023-05-17T00:39:27.940Z,3.92
2023-05-17T00:44:26.692Z,3.60
2023-05-17T00:49:25.515Z,3.72
2023-05-17T00:54:24.555Z,3.70
2023-05-17T00:59:24.901Z,4.57
2023-05-17T01:04:23.767Z,4.38
2023-05-17T01:09:22.696Z,5.13
2023-05-17T01:14:38.296Z,4.30
2023-05-17T01:19:56.285Z,4.60
2023-05-17T01:25:09.310Z,5.28
2023-05-17T01:30:13.285Z,4.15
2023-05-17T01:35:13.277Z,4.40
2023-05-17T01:40:12.600Z,4.60
2023-05-17T01:45:19.562Z,4.43
2023-05-17T01:50:23.876Z,3.40
2023-05-17T01:55:28.097Z,4.20
2023-05-17T02:00:31.048Z,3.92
2023-05-17T02:05:30.128Z,3.55
2023-05-17T02:10:29.181Z,4.00
2023-05-17T02:15:29.994Z,4.22
2023-05-17T02:20:28.851Z,4.28
2023-05-17T02:25:27.999Z,3.90
2023-05-17T02:30:27.094Z,3.75
2023-05-17T02:35:27.309Z,4.18
2023-05-17T02:40:26.287Z,5.25
2023-05-17T02:45:25.094Z,4.70
2023-05-17T02:50:23.841Z,4.43
2023-05-17T02:55:24.041Z,5.15
2023-05-17T03:00:22.918Z,4.68
2023-05-17T03:05:21.795Z,5.47
2023-05-17T03:10:24.546Z,5.10
2023-05-17T03:15:23.502Z,5.13
2023-05-17T03:20:22.447Z,4.63
2023-05-17T03:25:21.812Z,5.25
2023-05-17T03:35:22.577Z,5.47
2023-05-17T03:40:26.160Z,5.57
2023-05-17T03:45:28.755Z,6.03
2023-05-17T03:50:35.183Z,6.63
2023-05-17T03:55:34.515Z,5.88
2023-05-17T04:00:34.798Z,5.72
2023-05-17T04:05:41.349Z,5.35
2023-05-17T04:10:43.069Z,5.47
2023-05-17T04:15:43.489Z,9.55
2023-05-17T04:20:42.406Z,6.00
2023-05-17T04:25:42.360Z,5.85
2023-05-17T04:30:45.236Z,7.03
2023-05-17T04:35:46.831Z,5.65
2023-05-17T04:40:45.858Z,6.30
2023-05-17T04:45:46.991Z,7.90
2023-05-17T04:50:47.206Z,5.57
2023-05-17T04:55:48.292Z,6.30
2023-05-17T05:00:50.594Z,6.25
2023-05-17T05:05:49.901Z,7.55
2023-05-17T05:10:49.302Z,7.13
2023-05-17T05:15:51.103Z,7.97
2023-05-17T05:20:50.524Z,7.22
2023-05-17T05:25:50.352Z,6.07
2023-05-17T05:30:51.375Z,7.43
2023-05-17T05:35:51.769Z,8.37
2023-05-17T05:40:50.577Z,8.35
2023-05-17T05:45:50.911Z,8.00
2023-05-17T05:50:50.579Z,7.60
2023-05-17T05:55:49.681Z,6.40
2023-05-17T06:00:50.451Z,7.57
2023-05-17T06:05:49.359Z,6.32
2023-05-17T06:10:48.222Z,7.00
2023-05-17T06:15:46.990Z,5.65
2023-05-17T06:20:47.711Z,6.43
2023-05-17T06:25:46.470Z,9.23
2023-05-17T06:30:45.348Z,16.13
2023-05-17T06:35:55.579Z,12.07
2023-05-17T06:40:58.631Z,5.60
2023-05-17T06:45:57.456Z,5.32
2023-05-17T06:50:56.368Z,5.05
2023-05-17T06:55:55.272Z,5.03
2023-05-17T07:00:55.580Z,5.72
2023-05-17T07:05:54.415Z,5.28
2023-05-17T07:10:53.546Z,5.88
2023-05-17T07:15:52.504Z,6.53
2023-05-17T07:20:53.758Z,4.97
2023-05-17T07:25:52.621Z,5.28
2023-05-17T07:30:52.006Z,5.30
2023-05-17T07:35:52.104Z,5.93
2023-05-17T07:40:50.900Z,4.90
2023-05-17T07:45:49.789Z,5.75
2023-05-17T07:50:53.000Z,6.60
2023-05-17T07:55:52.199Z,8.45
2023-05-17T08:00:50.939Z,6.32
2023-05-17T08:05:49.701Z,5.85
2023-05-17T08:10:49.975Z,7.00
2023-05-17T08:15:50.073Z,6.65
2023-05-17T08:20:50.606Z,5.90
2023-05-17T08:25:50.743Z,6.68
2023-05-17T08:30:49.448Z,6.50
2023-05-17T08:36:41.759Z,10.60
2023-05-17T08:41:49.426Z,7.97
2023-05-17T08:46:52.468Z,7.00
2023-05-17T08:51:52.179Z,6.20
2023-05-17T08:56:54.692Z,7.20
2023-05-17T09:01:55.390Z,7.53
2023-05-17T09:06:54.291Z,6.57
2023-05-17T09:11:54.415Z,6.40
2023-05-17T09:16:58.455Z,7.05
2023-05-17T09:21:57.935Z,4.35
2023-05-17T09:27:03.421Z,4.63
2023-05-17T09:32:14.612Z,3.97
2023-05-17T09:37:17.925Z,5.22
2023-05-17T09:42:18.593Z,4.75
2023-05-17T09:47:27.674Z,4.32
2023-05-17T09:52:27.109Z,4.20
2023-05-17T09:57:30.007Z,4.65
2023-05-17T10:02:33.264Z,5.35
2023-05-17T10:07:36.116Z,4.93
2023-05-17T10:12:38.777Z,5.53
2023-05-17T10:17:43.933Z,5.47
2023-05-17T10:22:44.535Z,3.78
2023-05-17T10:27:45.169Z,4.25
2023-05-17T10:32:45.272Z,4.53
2023-05-17T10:37:44.235Z,4.70
2023-05-17T10:42:47.920Z,3.80
2023-05-17T10:47:47.394Z,3.70
2023-05-17T10:52:50.789Z,3.45
2023-05-17T10:58:22.591Z,3.22
2023-05-17T11:03:22.759Z,3.53
2023-05-17T11:08:21.813Z,4.03
2023-05-17T11:13:28.611Z,2.70
2023-05-17T11:18:30.720Z,2.50
2023-05-17T11:23:35.570Z,2.50
2023-05-17T11:28:36.009Z,2.78
2023-05-17T11:33:43.246Z,2.92
2023-05-17T11:38:42.534Z,3.05
2023-05-17T11:43:49.230Z,2.70
2023-05-17T11:48:50.310Z,2.45
2023-05-17T11:53:49.470Z,1.90
2023-05-17T11:58:52.966Z,1.90
2023-05-17T12:03:59.315Z,1.75
2023-05-17T12:08:58.048Z,1.73
2023-05-17T12:13:58.859Z,2.20
2023-05-17T12:18:58.765Z,2.00
2023-05-17T12:23:57.838Z,1.63
2023-05-17T12:28:59.065Z,2.95
2023-05-17T12:33:59.435Z,2.90
2023-05-17T12:38:58.902Z,2.38
2023-05-17T12:44:13.752Z,2.22
2023-05-17T12:49:13.991Z,2.38
2023-05-17T12:54:16.413Z,2.00
2023-05-17T12:59:22.086Z,4.28
2023-05-17T13:04:23.253Z,2.83
2023-05-17T13:09:26.398Z,2.58
2023-05-17T13:14:48.401Z,2.65
2023-05-17T13:19:47.381Z,2.40
2023-05-17T13:24:49.150Z,2.38
2023-05-17T13:29:49.529Z,2.33
2023-05-17T13:34:48.533Z,1.98
2023-05-17T13:39:47.512Z,2.95
2023-05-17T13:44:46.313Z,2.42
2023-05-17T13:49:46.455Z,2.67
2023-05-17T13:54:45.774Z,3.20
2023-05-17T13:59:46.018Z,5.13
2023-05-17T14:04:46.195Z,3.38
2023-05-17T14:09:45.003Z,3.35
2023-05-17T14:14:43.828Z,2.90
2023-05-17T14:19:42.982Z,3.17
2023-05-17T14:24:43.195Z,3.40
2023-05-17T14:29:42.013Z,2.47
2023-05-17T14:34:41.009Z,2.90
2023-05-17T14:39:39.818Z,5.85
2023-05-17T14:44:39.981Z,10.63
2023-05-17T14:49:38.815Z,5.65
2023-05-17T14:54:37.702Z,4.45
2023-05-17T14:59:38.039Z,5.97
2023-05-17T15:04:38.327Z,5.88
2023-05-17T15:09:41.925Z,4.50
2023-05-17T15:14:40.809Z,4.70
2023-05-17T15:19:41.470Z,4.55
2023-05-17T15:24:40.465Z,5.10
2023-05-17T15:29:40.905Z,5.07
2023-05-17T15:34:41.382Z,4.45
2023-05-17T15:39:40.337Z,4.82
2023-05-17T15:44:39.172Z,6.05
2023-05-17T15:49:37.888Z,6.30
2023-05-17T15:54:38.151Z,4.47
2023-05-17T15:59:37.231Z,5.57
2023-05-17T16:04:36.091Z,4.75
2023-05-17T16:09:34.829Z,4.50
2023-05-17T16:14:35.912Z,4.88
2023-05-17T16:19:35.074Z,10.30
2023-05-17T16:24:34.335Z,13.05
2023-05-17T16:29:40.284Z,7.20
2023-05-17T16:34:39.204Z,5.75
2023-05-17T16:39:40.629Z,5.57
2023-05-17T16:44:43.694Z,6.45
2023-05-17T16:49:45.553Z,6.88
2023-05-17T16:54:48.397Z,6.70
2023-05-17T16:59:50.604Z,8.68
2023-05-17T17:04:50.473Z,11.88
2023-05-17T17:09:50.251Z,12.27
2023-05-17T17:14:50.657Z,6.70
2023-05-17T17:19:50.387Z,6.10
2023-05-17T17:24:49.649Z,20.35
2023-05-17T17:29:50.277Z,9.52
2023-05-17T17:34:49.124Z,17.38
2023-05-17T17:39:51.266Z,11.40
2023-05-17T17:44:52.137Z,12.40
2023-05-17T17:49:51.746Z,9.50
2023-05-17T17:54:50.549Z,16.30
2023-05-17T17:59:49.345Z,15.45
2023-05-17T18:04:49.725Z,7.30
2023-05-17T18:09:48.772Z,12.00
2023-05-17T18:14:47.585Z,6.15
2023-05-17T18:19:48.549Z,5.07
2023-05-17T18:24:49.532Z,4.40
2023-05-17T18:29:48.319Z,4.97
2023-05-17T18:34:47.096Z,5.10
2023-05-17T18:39:45.868Z,4.43
2023-05-17T18:44:46.541Z,5.05
2023-05-17T18:49:47.144Z,4.00
2023-05-17T18:54:47.644Z,4.53
2023-05-17T18:59:47.849Z,3.80
2023-05-17T19:04:46.641Z,5.05
2023-05-17T19:09:46.127Z,4.05
2023-05-17T19:14:44.986Z,3.90
2023-05-17T19:19:45.250Z,3.70
2023-05-17T19:24:44.222Z,3.83
2023-05-17T19:29:43.069Z,4.28
2023-05-17T19:34:41.845Z,3.40
2023-05-17T19:39:42.061Z,3.75
2023-05-17T19:44:40.774Z,4.00
2023-05-17T19:49:40.325Z,4.95
2023-05-17T19:54:39.223Z,4.53
2023-05-17T19:59:42.034Z,5.13
2023-05-17T20:04:43.634Z,5.32
2023-05-17T20:09:42.789Z,4.87
2023-05-17T20:14:43.151Z,5.30
2023-05-17T20:19:42.011Z,5.50
2023-05-17T20:24:42.599Z,6.38
2023-05-17T20:29:43.014Z,5.43
2023-05-17T20:34:41.957Z,5.78
2023-05-17T20:39:41.020Z,4.97
2023-05-17T20:44:40.384Z,5.55
2023-05-17T20:49:40.663Z,5.03
2023-05-17T20:54:39.464Z,5.80
2023-05-17T20:59:38.250Z,5.05
2023-05-17T21:04:37.707Z,5.13
2023-05-17T21:09:38.064Z,4.55
2023-05-17T21:14:36.867Z,5.55
2023-05-17T21:19:35.684Z,5.93
2023-05-17T21:24:34.513Z,4.88
2023-05-17T21:29:34.630Z,5.38
2023-05-17T21:34:33.328Z,5.70
2023-05-17T21:39:32.057Z,6.07
2023-05-17T21:44:30.770Z,5.93
2023-05-17T21:49:30.845Z,6.25
2023-05-17T21:54:29.621Z,7.10
2023-05-17T21:59:28.398Z,5.38
2023-05-17T22:04:27.351Z,6.65
2023-05-17T22:09:28.180Z,6.40
2023-05-17T22:14:27.120Z,6.82
2023-05-17T22:19:25.881Z,7.28
2023-05-17T22:24:24.578Z,7.63
2023-05-17T22:29:24.678Z,6.78
2023-05-17T22:34:23.361Z,7.25
2023-05-17T22:39:22.064Z,7.00
2023-05-17T22:44:22.066Z,6.53
2023-05-17T22:49:22.215Z,7.22
2023-05-17T22:54:21.293Z,7.03
2023-05-17T22:59:19.979Z,8.25
2023-05-17T23:04:20.915Z,7.03
2023-05-17T23:09:21.934Z,6.70
2023-05-17T23:14:21.921Z,8.20
2023-05-17T23:19:20.989Z,7.50
2023-05-17T23:24:23.371Z,7.25
2023-05-17T23:29:22.160Z,7.18
2023-05-17T23:34:21.107Z,7.78
2023-05-17T23:39:21.230Z,7.07
2023-05-17T23:44:19.932Z,7.75
2023-05-17T23:49:19.603Z,8.52
2023-05-17T23:54:18.410Z,8.20
2023-05-17T23:59:18.484Z,8.95
